Time;durP1;ratioP1;P1;durP2;ratioP2;P2;SDS_P1;SDS_P2;PMS_P1;PMS_P2;Temp;Humidity;BMP_temperature;BMP_pressure;BME280_temperature;BME280_humidity;BME280_pressure;Samples;Min_cycle;Max_cycle;Signal;HPM_P1;HPM_P2
2022/08/13 00:01:44;;;;;;;5.30;3.90;;;23.80;68.60;;;;;;5086204;28;20522;-60
2022/08/13 00:04:17;;;;;;;6.00;3.63;;;23.80;68.90;;;;;;5087451;28;20561;-56
2022/08/13 00:07:06;;;;;;;4.40;4.00;;;23.80;69.20;;;;;;5087645;28;20454;-59
2022/08/13 00:09:33;;;;;;;4.00;3.30;;;23.70;69.50;;;;;;5088209;28;20422;-62
2022/08/13 00:14:47;;;;;;;7.67;3.50;;;23.70;70.10;;;;;;5088223;28;20414;-61
2022/08/13 00:17:15;;;;;;;4.10;3.53;;;23.60;69.80;;;;;;5087334;28;20480;-61
2022/08/13 00:19:45;;;;;;;6.57;4.10;;;23.60;70.70;;;;;;5087614;28;20467;-62
2022/08/13 00:22:19;;;;;;;7.60;4.10;;;23.60;71.30;;;;;;5088840;28;20506;-54
2022/08/13 00:24:49;;;;;;;4.30;3.90;;;23.60;71.40;;;;;;5087656;28;20616;-57
2022/08/13 00:27:17;;;;;;;9.93;4.57;;;23.70;71.50;;;;;;5088419;28;20814;-62
2022/08/13 00:29:44;;;;;;;4.27;3.87;;;23.70;71.70;;;;;;5088233;28;20954;-62
2022/08/13 00:32:11;;;;;;;5.10;3.30;;;23.70;71.70;;;;;;5088280;28;20465;-53
2022/08/13 00:34:43;;;;;;;5.30;3.60;;;23.70;72.00;;;;;;5087708;28;20470;-61
2022/08/13 00:37:25;;;;;;;6.00;4.30;;;23.60;72.20;;;;;;5087739;28;20508;-55
2022/08/13 00:39:53;;;;;;;4.80;3.50;;;23.60;72.60;;;;;;5087490;28;20946;-61
2022/08/13 00:42:21;;;;;;;4.77;3.77;;;23.60;73.10;;;;;;5087429;28;20457;-61
2022/08/13 00:44:49;;;;;;;12.37;4.00;;;23.50;73.50;;;;;;5086519;28;20462;-58
2022/08/13 00:50:00;;;;;;;7.17;4.00;;;23.40;74.80;;;;;;5087634;28;20472;-62
2022/08/13 00:52:32;;;;;;;9.87;3.70;;;23.40;75.60;;;;;;5087222;28;20900;-62
2022/08/13 00:55:07;;;;;;;5.70;3.53;;;23.40;75.80;;;;;;5088019;28;20434;-61
2022/08/13 00:57:36;;;;;;;10.80;3.87;;;23.30;76.50;;;;;;5088065;28;20973;-57
2022/08/13 01:00:12;;;;;;;5.33;4.23;;;23.30;77.10;;;;;;5087862;28;20474;-62
2022/08/13 01:02:41;;;;;;;4.70;3.47;;;23.20;77.70;;;;;;5087524;28;20580;-61
2022/08/13 01:05:11;;;;;;;6.60;3.70;;;23.30;78.60;;;;;;5088569;28;20458;-54
2022/08/13 01:07:44;;;;;;;5.20;4.80;;;23.20;78.90;;;;;;5088060;28;20978;-57
2022/08/13 01:10:12;;;;;;;3.77;3.47;;;23.20;79.70;;;;;;5088702;28;20918;-55
2022/08/13 01:12:40;;;;;;;4.17;3.50;;;23.20;80.40;;;;;;5088000;28;20483;-58
2022/08/13 01:15:12;;;;;;;5.03;3.70;;;23.20;81.00;;;;;;5092192;28;20426;-62
2022/08/13 01:17:40;;;;;;;5.53;4.43;;;23.10;81.50;;;;;;5091803;28;20458;-60
2022/08/13 01:20:09;;;;;;;5.90;4.50;;;23.10;82.10;;;;;;5092223;28;20486;-60
2022/08/13 01:22:41;;;;;;;5.50;3.97;;;23.10;82.70;;;;;;5091929;28;20511;-57
2022/08/13 01:25:09;;;;;;;5.37;4.10;;;23.10;83.20;;;;;;5091855;28;20954;-60
2022/08/13 01:27:39;;;;;;;4.00;3.60;;;23.10;84.10;;;;;;5091205;28;20454;-60
2022/08/13 01:30:15;;;;;;;7.60;4.17;;;23.10;84.90;;;;;;5091078;28;20472;-56
2022/08/13 01:32:42;;;;;;;12.93;4.00;;;23.10;85.40;;;;;;5091344;28;20411;-61
2022/08/13 01:35:09;;;;;;;3.77;3.40;;;23.10;86.20;;;;;;5091903;28;20962;-54
2022/08/13 01:37:39;;;;;;;4.40;3.93;;;23.10;86.80;;;;;;5091055;28;20441;-58
2022/08/13 01:40:14;;;;;;;15.53;5.10;;;23.00;87.50;;;;;;5091644;28;20542;-61
2022/08/13 01:42:45;;;;;;;5.10;3.80;;;23.10;88.20;;;;;;5091147;28;20462;-60
2022/08/13 01:45:14;;;;;;;6.73;3.87;;;23.10;88.60;;;;;;5091891;28;20507;-61
2022/08/13 01:50:31;;;;;;;4.93;4.43;;;23.00;89.70;;;;;;5091476;28;20473;-61
2022/08/13 01:53:02;;;;;;;4.90;3.67;;;23.00;90.20;;;;;;5091662;28;20492;-61
2022/08/13 01:55:37;;;;;;;4.57;3.67;;;23.00;90.60;;;;;;5092274;28;20536;-52
2022/08/13 01:58:05;;;;;;;7.70;4.67;;;23.00;91.00;;;;;;5091709;28;20481;-60
2022/08/13 02:00:33;;;;;;;5.67;3.87;;;23.00;91.70;;;;;;5091624;28;20463;-58
2022/08/13 02:03:04;;;;;;;5.10;4.10;;;23.00;92.00;;;;;;5091606;28;20541;-57
2022/08/13 02:05:32;;;;;;;5.43;3.93;;;23.00;92.00;;;;;;5092096;28;20923;-54
2022/08/13 02:08:02;;;;;;;4.13;3.20;;;23.00;92.30;;;;;;5091476;28;20545;-57
2022/08/13 02:10:29;;;;;;;8.73;3.50;;;22.90;92.60;;;;;;5091379;28;20435;-60
2022/08/13 02:12:56;;;;;;;5.37;4.30;;;22.90;92.90;;;;;;5091441;28;20455;-56
2022/08/13 02:15:23;;;;;;;4.70;4.30;;;22.90;93.30;;;;;;5091181;28;20506;-59
2022/08/13 02:17:50;;;;;;;6.60;3.87;;;22.90;93.60;;;;;;5091860;28;20485;-61
2022/08/13 02:20:18;;;;;;;3.97;3.33;;;22.90;94.00;;;;;;5091873;28;20886;-59
2022/08/13 02:22:46;;;;;;;4.40;3.90;;;22.90;94.30;;;;;;5091919;28;20467;-57
2022/08/13 02:25:15;;;;;;;7.10;3.50;;;22.80;94.70;;;;;;5090082;28;20500;-60
2022/08/13 02:27:43;;;;;;;5.93;4.77;;;22.80;95.00;;;;;;5090988;28;20510;-54
2022/08/13 02:30:14;;;;;;;6.07;3.80;;;22.80;95.50;;;;;;5091478;28;20458;-55
2022/08/13 02:32:42;;;;;;;5.40;4.43;;;22.80;95.90;;;;;;5091445;28;20434;-61
2022/08/13 02:35:09;;;;;;;4.13;3.23;;;22.80;96.00;;;;;;5091208;28;20446;-62
2022/08/13 02:37:37;;;;;;;6.47;4.00;;;22.80;96.30;;;;;;5091523;28;20497;-59
2022/08/13 02:41:38;;;;;;;4.73;3.83;;;22.70;96.70;;;;;;5091440;28;20482;-59
2022/08/13 02:42:59;;;;;;;4.50;3.93;;;22.70;97.00;;;;;;5091111;28;20466;-62
2022/08/13 02:45:28;;;;;;;4.30;3.90;;;22.80;97.50;;;;;;5090888;28;20466;-56
2022/08/13 02:48:02;;;;;;;7.77;4.50;;;22.70;97.70;;;;;;5089914;28;20470;-58
2022/08/13 02:50:29;;;;;;;4.50;4.10;;;22.70;98.00;;;;;;5090578;28;20450;-59
2022/08/13 02:52:59;;;;;;;5.43;4.50;;;22.70;98.20;;;;;;5090601;28;20462;-59
2022/08/13 02:55:30;;;;;;;8.60;4.20;;;22.60;98.50;;;;;;5090823;28;20469;-57
2022/08/13 02:57:57;;;;;;;4.80;4.40;;;22.60;98.90;;;;;;5090919;28;20431;-54
2022/08/13 03:00:25;;;;;;;7.83;3.97;;;22.60;99.30;;;;;;5090519;28;20485;-59
2022/08/13 03:02:57;;;;;;;4.63;3.83;;;22.60;99.50;;;;;;5090529;28;20514;-61
2022/08/13 03:05:24;;;;;;;5.00;4.50;;;22.50;99.70;;;;;;5090887;28;20499;-56
2022/08/13 03:07:51;;;;;;;4.60;4.13;;;22.60;99.90;;;;;;5090495;28;20452;-54
2022/08/13 03:10:22;;;;;;;9.10;4.30;;;22.50;99.90;;;;;;5090250;28;20526;-57
2022/08/13 03:12:53;;;;;;;7.07;4.10;;;22.50;99.90;;;;;;5090370;28;20482;-58
2022/08/13 03:15:23;;;;;;;12.90;4.30;;;22.50;99.90;;;;;;5090625;28;20537;-59
2022/08/13 03:17:52;;;;;;;4.90;3.80;;;22.50;99.90;;;;;;5091218;28;20482;-61
2022/08/13 03:20:21;;;;;;;5.13;4.07;;;22.50;99.90;;;;;;5090799;28;20493;-56
2022/08/13 03:22:49;;;;;;;5.70;4.70;;;22.50;99.90;;;;;;5090467;28;20489;-61
2022/08/13 03:25:17;;;;;;;4.60;4.10;;;22.40;99.90;;;;;;5090944;28;20481;-60
2022/08/13 03:27:44;;;;;;;6.10;4.17;;;22.40;99.90;;;;;;5089933;28;20446;-55
2022/08/13 03:30:12;;;;;;;8.90;5.07;;;22.40;99.90;;;;;;5090413;28;20442;-60
2022/08/13 03:32:40;;;;;;;6.10;4.07;;;22.40;99.90;;;;;;5090511;28;20476;-62
2022/08/13 03:35:12;;;;;;;5.13;4.30;;;22.50;99.90;;;;;;5089998;28;20459;-57
2022/08/13 03:37:41;;;;;;;5.03;4.40;;;22.50;99.90;;;;;;5090437;28;20649;-60
2022/08/13 03:40:12;;;;;;;7.23;5.23;;;22.40;99.90;;;;;;5090576;28;20534;-53
2022/08/13 03:42:40;;;;;;;6.53;4.77;;;22.50;99.90;;;;;;5090263;28;20451;-60
2022/08/13 03:45:09;;;;;;;4.50;3.93;;;22.50;99.90;;;;;;5090694;28;20960;-54
2022/08/13 03:47:36;;;;;;;4.83;4.33;;;22.40;99.90;;;;;;5090268;28;20458;-54
2022/08/13 03:50:09;;;;;;;5.67;5.07;;;22.40;99.90;;;;;;5090771;28;20450;-59
2022/08/13 03:52:39;;;;;;;6.40;4.17;;;22.40;99.90;;;;;;5090202;28;20473;-58
2022/08/13 03:55:15;;;;;;;8.40;4.20;;;22.40;99.90;;;;;;5090507;28;20513;-59
2022/08/13 03:57:52;;;;;;;6.73;4.87;;;22.40;99.90;;;;;;5090960;28;20438;-62
2022/08/13 04:00:20;;;;;;;4.90;4.40;;;22.40;99.90;;;;;;5090646;28;20524;-58
2022/08/13 04:02:47;;;;;;;6.37;5.17;;;22.40;99.90;;;;;;5090793;28;20467;-61
2022/08/13 04:05:16;;;;;;;5.27;4.50;;;22.40;99.90;;;;;;5090164;28;20446;-60
2022/08/13 04:07:45;;;;;;;7.60;3.80;;;22.40;99.90;;;;;;5090442;28;20922;-58
2022/08/13 04:10:13;;;;;;;7.10;4.83;;;22.40;99.90;;;;;;5090568;28;20466;-60
2022/08/13 04:12:42;;;;;;;6.33;4.60;;;22.40;99.90;;;;;;5090655;28;20453;-58
2022/08/13 04:15:10;;;;;;;5.70;4.20;;;22.40;99.90;;;;;;5090295;28;20955;-58
2022/08/13 04:17:40;;;;;;;5.57;4.80;;;22.50;99.90;;;;;;5090988;28;20467;-54
2022/08/13 04:20:10;;;;;;;5.27;4.77;;;22.50;99.90;;;;;;5090834;28;20488;-57
2022/08/13 04:22:40;;;;;;;4.30;3.63;;;22.50;99.90;;;;;;5090429;28;20462;-57
2022/08/13 04:25:11;;;;;;;11.87;5.50;;;22.50;99.90;;;;;;5090615;28;20427;-54
2022/08/13 04:27:38;;;;;;;8.50;4.53;;;22.50;99.90;;;;;;5090485;28;20488;-58
2022/08/13 04:30:08;;;;;;;5.07;4.57;;;22.50;99.90;;;;;;5090487;28;20458;-57
2022/08/13 04:32:43;;;;;;;4.63;4.20;;;22.40;99.90;;;;;;5090155;28;20438;-57
2022/08/13 04:35:13;;;;;;;6.43;4.30;;;22.40;99.90;;;;;;5089846;28;20446;-58
2022/08/13 04:37:43;;;;;;;4.20;3.60;;;22.40;99.90;;;;;;5089531;28;20524;-61
2022/08/13 04:40:13;;;;;;;7.00;4.67;;;22.40;99.90;;;;;;5090542;28;20480;-59
2022/08/13 04:42:53;;;;;;;5.13;4.00;;;22.40;99.90;;;;;;5090439;28;20442;-62
2022/08/13 04:45:20;;;;;;;6.23;4.93;;;22.40;99.90;;;;;;5090748;28;20473;-52
2022/08/13 04:47:50;;;;;;;5.53;4.90;;;22.40;99.90;;;;;;5090655;28;20518;-63
2022/08/13 04:50:17;;;;;;;5.00;4.50;;;22.40;99.90;;;;;;5089351;28;20509;-62
2022/08/13 04:52:44;;;;;;;6.80;4.33;;;22.40;99.90;;;;;;5082206;28;20442;-61
2022/08/13 04:55:12;;;;;;;7.10;4.40;;;22.40;99.90;;;;;;5078139;28;20571;-63
2022/08/13 04:57:41;;;;;;;4.57;3.87;;;22.40;99.90;;;;;;5078065;28;20454;-56
2022/08/13 05:00:09;;;;;;;5.13;4.63;;;22.40;99.90;;;;;;5077616;28;20478;-61
2022/08/13 05:02:38;;;;;;;5.70;4.00;;;22.50;99.90;;;;;;5077934;28;20512;-60
2022/08/13 05:05:06;;;;;;;5.33;4.37;;;22.60;99.90;;;;;;5078347;28;20446;-64
2022/08/13 05:07:36;;;;;;;4.87;4.23;;;22.60;99.90;;;;;;5078595;28;20494;-63
2022/08/13 05:10:06;;;;;;;4.63;4.23;;;22.70;99.90;;;;;;5078886;28;20927;-63
2022/08/13 05:12:40;;;;;;;4.60;4.20;;;22.70;99.90;;;;;;5077777;28;20466;-64
2022/08/13 05:15:07;;;;;;;6.07;3.97;;;22.80;99.90;;;;;;5078264;28;20454;-63
2022/08/13 05:17:34;;;;;;;5.80;4.20;;;22.90;99.90;;;;;;5078901;28;20462;-62
2022/08/13 05:20:01;;;;;;;6.47;4.50;;;22.90;99.90;;;;;;5078614;28;21008;-58
2022/08/13 05:22:31;;;;;;;5.73;5.20;;;23.00;99.90;;;;;;5079073;28;20442;-56
2022/08/13 05:24:58;;;;;;;5.60;5.10;;;23.00;99.90;;;;;;5078817;28;20445;-61
2022/08/13 05:27:28;;;;;;;5.43;4.40;;;23.10;99.90;;;;;;5078700;28;20957;-61
2022/08/13 05:30:04;;;;;;;4.23;3.83;;;23.10;99.90;;;;;;5078605;28;20470;-61
2022/08/13 05:32:38;;;;;;;5.43;4.67;;;23.10;99.90;;;;;;5078272;28;20899;-60
2022/08/13 05:35:08;;;;;;;5.87;4.70;;;23.10;99.90;;;;;;5078422;28;20556;-63
2022/08/13 05:37:35;;;;;;;6.80;4.70;;;23.20;99.90;;;;;;5078489;28;20442;-62
2022/08/13 05:40:03;;;;;;;9.23;4.33;;;23.30;99.90;;;;;;5079236;28;20573;-58
2022/08/13 05:42:31;;;;;;;4.30;3.90;;;23.30;99.90;;;;;;5078320;28;20453;-60
2022/08/13 05:44:59;;;;;;;6.53;5.90;;;23.40;99.90;;;;;;5078307;28;20462;-55
2022/08/13 05:47:26;;;;;;;5.87;4.83;;;23.50;99.90;;;;;;5077168;28;20457;-56
2022/08/13 05:49:54;;;;;;;6.40;4.67;;;23.60;99.90;;;;;;5077175;28;20460;-56
2022/08/13 05:52:20;;;;;;;5.20;4.80;;;23.80;99.90;;;;;;5077651;28;20473;-56
2022/08/13 05:54:49;;;;;;;5.60;4.90;;;23.90;99.90;;;;;;5077376;28;20453;-55
2022/08/13 05:57:18;;;;;;;6.17;4.80;;;24.00;99.90;;;;;;5080699;28;20494;-57
2022/08/13 06:05:15;;;;;;;5.40;4.60;;;24.30;99.90;;;;;;5078987;28;20421;-54
2022/08/13 06:07:46;;;;;;;5.90;4.73;;;24.30;99.80;;;;;;5076627;28;20519;-54
2022/08/13 06:10:15;;;;;;;5.50;5.00;;;24.40;99.60;;;;;;5077917;28;20434;-54
2022/08/13 06:12:43;;;;;;;6.40;5.10;;;24.40;99.60;;;;;;5078119;28;20431;-52
2022/08/13 06:15:11;;;;;;;5.40;4.90;;;24.40;99.40;;;;;;5077301;28;20454;-53
2022/08/13 06:17:41;;;;;;;5.90;4.27;;;24.50;99.60;;;;;;5076034;28;20762;-51
2022/08/13 06:20:09;;;;;;;5.70;3.93;;;24.50;99.50;;;;;;5076468;28;20481;-50
2022/08/13 06:22:40;;;;;;;5.43;4.93;;;24.50;99.40;;;;;;5076094;28;20796;-49
2022/08/13 06:25:07;;;;;;;15.93;5.40;;;24.50;99.20;;;;;;5075922;28;20482;-53
2022/08/13 06:27:34;;;;;;;9.67;4.87;;;24.60;99.40;;;;;;5078251;28;20449;-54
2022/08/13 06:30:01;;;;;;;6.47;4.67;;;24.70;99.40;;;;;;5078098;28;21021;-48
2022/08/13 06:32:35;;;;;;;4.77;4.40;;;24.80;98.90;;;;;;5077866;28;20489;-50
2022/08/13 06:35:04;;;;;;;10.10;4.80;;;24.90;98.60;;;;;;5076573;28;20446;-53
2022/08/13 06:37:32;;;;;;;6.70;5.17;;;24.90;98.20;;;;;;5076755;28;20468;-53
2022/08/13 06:40:01;;;;;;;5.00;4.60;;;25.00;98.10;;;;;;5076625;28;20473;-50
2022/08/13 06:42:29;;;;;;;5.17;4.67;;;25.10;98.20;;;;;;5077735;28;20541;-53
2022/08/13 06:44:59;;;;;;;5.77;5.17;;;25.10;97.50;;;;;;5076632;28;20450;-51
2022/08/13 06:47:29;;;;;;;6.70;4.67;;;25.10;97.20;;;;;;5077280;28;20484;-54
2022/08/13 06:49:56;;;;;;;5.20;4.60;;;25.20;96.90;;;;;;5077545;28;20519;-51
2022/08/13 06:52:26;;;;;;;5.60;5.10;;;25.10;97.00;;;;;;5077397;28;20466;-49
2022/08/13 06:54:55;;;;;;;6.30;5.07;;;25.20;97.30;;;;;;5077802;28;20529;-51
2022/08/13 06:57:23;;;;;;;7.20;5.27;;;25.20;97.20;;;;;;5075724;28;20511;-49
2022/08/13 06:59:50;;;;;;;6.13;4.40;;;25.30;97.20;;;;;;5075118;28;20434;-55
2022/08/13 07:02:21;;;;;;;5.70;4.87;;;25.20;97.20;;;;;;5075645;28;20482;-54
2022/08/13 07:04:49;;;;;;;7.37;5.10;;;25.30;97.30;;;;;;5077674;28;20471;-49
2022/08/13 07:07:17;;;;;;;5.40;4.97;;;25.30;97.30;;;;;;5076635;28;20591;-52
2022/08/13 07:09:46;;;;;;;7.63;5.23;;;25.30;97.50;;;;;;5075160;28;20470;-54
2022/08/13 07:12:13;;;;;;;6.83;5.03;;;25.50;97.60;;;;;;5074602;28;20446;-50
2022/08/13 07:14:42;;;;;;;6.20;4.53;;;25.50;97.40;;;;;;5075346;28;20969;-57
2022/08/13 07:17:10;;;;;;;7.60;5.33;;;25.60;97.40;;;;;;5078213;28;20446;-56
2022/08/13 07:19:37;;;;;;;8.30;6.00;;;25.60;97.60;;;;;;5075555;28;20947;-50
2022/08/13 07:22:04;;;;;;;11.13;6.10;;;25.60;97.60;;;;;;5076885;28;20922;-57
2022/08/13 07:24:31;;;;;;;5.63;5.03;;;25.60;97.60;;;;;;5077596;28;20448;-53
2022/08/13 07:27:04;;;;;;;6.60;5.47;;;25.60;97.50;;;;;;5075480;28;20993;-53
2022/08/13 07:29:36;;;;;;;5.67;4.57;;;25.70;97.30;;;;;;5076185;28;20442;-52
2022/08/13 07:32:03;;;;;;;7.20;4.83;;;25.80;97.20;;;;;;5077849;28;20462;-52
2022/08/13 07:34:32;;;;;;;4.60;4.20;;;26.00;96.80;;;;;;5075739;28;20446;-54
2022/08/13 07:37:03;;;;;;;5.53;4.80;;;26.20;96.30;;;;;;5076359;28;20562;-58
2022/08/13 07:39:31;;;;;;;7.63;5.63;;;26.40;96.00;;;;;;5077199;28;20500;-53
2022/08/13 07:41:59;;;;;;;8.97;5.70;;;26.50;95.50;;;;;;5074796;28;20478;-54
2022/08/13 07:44:26;;;;;;;8.37;5.00;;;26.80;94.90;;;;;;5074295;28;20767;-54
2022/08/13 07:46:54;;;;;;;6.90;5.67;;;27.20;95.00;;;;;;5074315;28;20549;-49
2022/08/13 07:49:22;;;;;;;7.17;6.10;;;27.50;93.30;;;;;;5074468;28;20454;-52
2022/08/13 07:51:51;;;;;;;5.40;4.97;;;27.70;92.50;;;;;;5036445;28;1110515;-54
2022/08/13 07:54:18;;;;;;;5.50;5.00;;;27.80;92.20;;;;;;5074911;28;20235;-52
2022/08/13 07:56:48;;;;;;;7.40;5.30;;;27.90;91.80;;;;;;5075377;28;20474;-50
2022/08/13 07:59:17;;;;;;;7.50;5.73;;;27.90;91.60;;;;;;5076265;28;20476;-54
2022/08/13 08:01:46;;;;;;;5.20;4.70;;;27.90;91.90;;;;;;5076547;28;20478;-54
2022/08/13 08:04:14;;;;;;;6.20;5.60;;;27.70;91.60;;;;;;5075320;28;20553;-49
2022/08/13 08:06:42;;;;;;;6.30;5.80;;;27.60;91.90;;;;;;5076519;28;20510;-59
2022/08/13 08:09:10;;;;;;;5.60;5.20;;;27.50;92.00;;;;;;5075251;28;20453;-49
2022/08/13 08:14:25;;;;;;;5.70;5.13;;;27.30;92.50;;;;;;5074598;28;20410;-54
2022/08/13 08:16:52;;;;;;;6.10;5.60;;;27.20;92.70;;;;;;5074590;28;20497;-53
2022/08/13 08:19:19;;;;;;;6.20;5.67;;;27.10;93.20;;;;;;5074852;28;20446;-53
2022/08/13 08:21:48;;;;;;;5.97;5.40;;;27.00;92.90;;;;;;5074646;28;20490;-50
2022/08/13 08:24:16;;;;;;;6.77;5.90;;;26.90;93.70;;;;;;5080114;28;20537;-53
2022/08/13 08:26:46;;;;;;;6.97;5.17;;;26.90;93.80;;;;;;5082261;28;20470;-57
2022/08/13 08:29:13;;;;;;;6.60;5.03;;;26.80;94.40;;;;;;5079548;28;20500;-49
2022/08/13 08:31:42;;;;;;;6.10;5.50;;;26.80;94.20;;;;;;5078834;28;20484;-51
2022/08/13 08:34:10;;;;;;;6.47;5.77;;;26.80;94.40;;;;;;5078871;28;20457;-49
2022/08/13 08:36:40;;;;;;;8.70;5.10;;;26.80;94.40;;;;;;5078914;28;20470;-54
2022/08/13 08:44:38;;;;;;;8.20;5.67;;;27.00;93.90;;;;;;5078306;28;20453;-52
2022/08/13 08:47:09;;;;;;;9.33;6.20;;;27.00;93.70;;;;;;5078683;28;20465;-53
2022/08/13 08:49:37;;;;;;;6.00;5.20;;;27.00;93.80;;;;;;5078324;28;20489;-50
2022/08/13 08:52:05;;;;;;;5.80;5.20;;;27.10;93.80;;;;;;5079527;28;20422;-61
2022/08/13 08:54:32;;;;;;;5.57;5.07;;;27.10;93.90;;;;;;5080925;28;20790;-54
2022/08/13 08:57:00;;;;;;;8.73;6.00;;;27.20;93.70;;;;;;5080569;28;20470;-50
2022/08/13 08:59:35;;;;;;;5.60;5.10;;;27.30;93.60;;;;;;5080166;28;20438;-55
2022/08/13 09:02:16;;;;;;;6.67;5.87;;;27.50;93.60;;;;;;5081212;28;20470;-51
2022/08/13 09:04:54;;;;;;;7.17;6.43;;;27.60;93.40;;;;;;5080020;28;20430;-54
2022/08/13 09:07:24;;;;;;;8.60;6.27;;;27.90;93.00;;;;;;5078761;28;20435;-51
2022/08/13 09:09:55;;;;;;;7.20;6.00;;;28.10;92.50;;;;;;5078277;28;20446;-53
2022/08/13 09:12:25;;;;;;;6.33;5.70;;;28.20;92.20;;;;;;5077861;28;20462;-45
2022/08/13 09:14:52;;;;;;;8.77;6.37;;;28.40;91.50;;;;;;5079267;28;20722;-51
2022/08/13 09:17:20;;;;;;;8.93;7.10;;;28.50;91.30;;;;;;5080125;28;20470;-53
2022/08/13 09:19:48;;;;;;;7.60;6.23;;;28.60;91.10;;;;;;5079277;28;20452;-54
2022/08/13 09:22:20;;;;;;;6.90;6.20;;;28.70;91.00;;;;;;5078425;28;20581;-58
2022/08/13 09:24:48;;;;;;;8.33;6.43;;;28.90;90.70;;;;;;5078541;28;20431;-52
2022/08/13 09:27:17;;;;;;;7.53;6.13;;;29.10;90.20;;;;;;5080686;28;20462;-61
2022/08/13 09:29:45;;;;;;;7.60;5.87;;;29.60;89.30;;;;;;5079657;28;20450;-54
2022/08/13 09:32:14;;;;;;;7.47;6.77;;;30.00;87.40;;;;;;5079714;28;20571;-56
2022/08/13 09:34:44;;;;;;;9.00;7.27;;;30.10;85.80;;;;;;5078048;28;20470;-52
2022/08/13 09:37:12;;;;;;;7.53;6.30;;;30.20;85.10;;;;;;5077950;28;20464;-52
2022/08/13 09:39:48;;;;;;;8.33;5.90;;;30.10;84.40;;;;;;5077164;28;21015;-52
2022/08/13 09:42:23;;;;;;;6.73;6.13;;;30.00;83.70;;;;;;5077371;28;20458;-53
2022/08/13 09:44:53;;;;;;;7.60;6.90;;;29.90;84.20;;;;;;5077195;28;20489;-54
2022/08/13 09:47:22;;;;;;;8.80;6.60;;;29.70;84.90;;;;;;5076944;28;20446;-50
2022/08/13 09:49:49;;;;;;;8.10;7.23;;;29.40;84.70;;;;;;5077134;28;20476;-54
2022/08/13 09:52:17;;;;;;;7.27;6.47;;;29.30;85.60;;;;;;5077690;28;20504;-53
2022/08/13 09:54:45;;;;;;;9.20;7.47;;;29.20;86.30;;;;;;5080417;28;20472;-53
2022/08/13 09:57:12;;;;;;;10.17;7.73;;;29.10;86.60;;;;;;5081298;28;20458;-54
2022/08/13 09:59:39;;;;;;;8.60;7.70;;;29.00;87.00;;;;;;5080400;28;20462;-51
2022/08/13 10:02:12;;;;;;;9.57;7.47;;;29.00;87.50;;;;;;5078374;28;20482;-48
2022/08/13 10:04:42;;;;;;;6.90;6.30;;;29.00;87.90;;;;;;5078704;28;20430;-54
2022/08/13 10:07:09;;;;;;;10.20;9.17;;;29.00;87.00;;;;;;5078254;28;20462;-48
2022/08/13 10:09:38;;;;;;;8.30;7.50;;;29.00;87.50;;;;;;5078710;28;20450;-49
2022/08/13 10:12:07;;;;;;;11.07;7.97;;;29.00;87.70;;;;;;5078520;28;20509;-50
2022/08/13 10:14:35;;;;;;;9.50;7.17;;;29.00;87.50;;;;;;5079298;28;20484;-57
2022/08/13 10:17:03;;;;;;;7.63;6.90;;;28.90;87.70;;;;;;5080386;28;20427;-56
2022/08/13 10:19:31;;;;;;;7.67;6.97;;;28.90;87.40;;;;;;5080863;28;20512;-53
2022/08/13 10:22:10;;;;;;;11.10;9.07;;;28.80;87.80;;;;;;5080320;28;20508;-49
2022/08/13 10:24:48;;;;;;;7.30;6.70;;;28.70;88.40;;;;;;5081249;28;20434;-57
2022/08/13 10:27:14;;;;;;;10.13;6.97;;;28.60;88.70;;;;;;5079674;28;20451;-54
2022/08/13 10:29:41;;;;;;;10.83;9.07;;;28.50;88.70;;;;;;5080444;28;20438;-52
2022/08/13 10:32:08;;;;;;;7.43;6.73;;;28.40;89.90;;;;;;5079771;28;20439;-54
2022/08/13 10:34:36;;;;;;;6.80;5.80;;;28.40;90.60;;;;;;5079246;28;20441;-53
2022/08/13 10:37:03;;;;;;;7.20;6.50;;;28.40;90.10;;;;;;5079254;28;20477;-55
2022/08/13 10:39:30;;;;;;;8.10;6.87;;;28.40;90.10;;;;;;5079018;28;20450;-57
2022/08/13 10:42:00;;;;;;;11.17;8.93;;;28.40;90.50;;;;;;5078161;28;20493;-50
2022/08/13 10:44:27;;;;;;;9.20;6.50;;;28.40;90.80;;;;;;5077797;28;20469;-49
2022/08/13 10:46:54;;;;;;;7.10;5.90;;;28.30;91.60;;;;;;5077597;28;20465;-48
2022/08/13 10:49:29;;;;;;;7.80;6.80;;;28.20;92.20;;;;;;5079509;28;20497;-47
2022/08/13 10:51:57;;;;;;;23.90;13.80;;;28.00;93.20;;;;;;5079435;28;20414;-49
2022/08/13 10:54:25;;;;;;;13.33;6.20;;;27.80;93.40;;;;;;5078690;28;20494;-48
2022/08/13 10:56:52;;;;;;;14.50;7.10;;;27.80;93.60;;;;;;5079133;28;20446;-50
2022/08/13 10:59:20;;;;;;;26.70;13.07;;;27.80;94.00;;;;;;5079766;28;20438;-56
2022/08/13 11:01:47;;;;;;;7.47;6.73;;;27.80;94.60;;;;;;5079793;28;20539;-55
2022/08/13 11:04:14;;;;;;;13.30;6.07;;;27.70;94.00;;;;;;5078162;28;20832;-53
2022/08/13 11:06:41;;;;;;;6.20;5.60;;;27.70;94.30;;;;;;5078541;28;20449;-52
2022/08/13 11:09:10;;;;;;;13.40;9.30;;;27.70;94.40;;;;;;5078623;28;20911;-53
2022/08/13 11:11:37;;;;;;;16.37;11.73;;;27.70;94.40;;;;;;5079425;28;20504;-48
2022/08/13 11:14:04;;;;;;;7.00;5.70;;;27.70;94.70;;;;;;5079674;28;20480;-48
2022/08/13 11:22:09;;;;;;;8.03;6.07;;;27.50;95.10;;;;;;5076023;28;20481;-49
2022/08/13 11:24:36;;;;;;;5.67;5.17;;;27.30;95.50;;;;;;5078552;28;20473;-50
2022/08/13 11:27:03;;;;;;;7.67;6.40;;;27.30;96.00;;;;;;5078813;28;20454;-54
2022/08/13 11:29:31;;;;;;;7.40;6.70;;;27.30;96.10;;;;;;5078560;28;20450;-47
2022/08/13 11:31:59;;;;;;;8.50;6.97;;;27.30;96.30;;;;;;5078778;28;20443;-48
2022/08/13 11:34:26;;;;;;;10.33;6.97;;;27.40;96.40;;;;;;5079070;28;20442;-48
2022/08/13 11:36:53;;;;;;;13.53;7.00;;;27.60;96.20;;;;;;5079325;28;20438;-53
2022/08/13 11:39:20;;;;;;;12.17;7.20;;;27.80;96.20;;;;;;5079497;28;20557;-55
2022/08/13 11:41:47;;;;;;;9.03;7.20;;;27.90;95.80;;;;;;5079033;28;20509;-48
2022/08/13 11:44:16;;;;;;;11.30;7.50;;;28.00;95.50;;;;;;5078790;28;20462;-53
2022/08/13 11:46:43;;;;;;;7.23;6.03;;;28.00;95.50;;;;;;5078489;28;20519;-52
2022/08/13 11:49:12;;;;;;;8.30;7.43;;;27.90;95.10;;;;;;5078487;28;20470;-56
2022/08/13 11:51:39;;;;;;;8.50;7.80;;;27.80;94.90;;;;;;5078139;28;20512;-50
2022/08/13 11:54:06;;;;;;;8.07;6.97;;;27.70;95.00;;;;;;5078086;28;20466;-49
2022/08/13 11:56:33;;;;;;;33.60;23.30;;;27.60;95.20;;;;;;5078812;28;20496;-48
2022/08/13 11:58:59;;;;;;;11.37;9.20;;;27.60;95.60;;;;;;5078077;28;20474;-53
2022/08/13 12:01:30;;;;;;;14.90;11.00;;;27.50;96.50;;;;;;5078712;28;20453;-61
2022/08/13 12:03:57;;;;;;;14.00;11.33;;;27.60;96.70;;;;;;5079141;28;20485;-49
2022/08/13 12:06:25;;;;;;;17.70;10.80;;;27.50;97.00;;;;;;5078495;28;20907;-45
2022/08/13 12:08:52;;;;;;;13.07;9.40;;;27.50;98.80;;;;;;5077793;28;20480;-51
2022/08/13 12:11:19;;;;;;;8.73;7.30;;;27.40;99.20;;;;;;5078590;28;20529;-54
2022/08/13 12:13:45;;;;;;;7.27;6.67;;;27.40;99.70;;;;;;5078485;28;20470;-52
2022/08/13 12:16:12;;;;;;;7.83;7.10;;;27.30;98.90;;;;;;5078748;28;20450;-52
2022/08/13 12:18:39;;;;;;;7.70;7.00;;;27.30;99.60;;;;;;5078417;28;20481;-52
2022/08/13 12:21:06;;;;;;;8.57;7.77;;;27.30;98.80;;;;;;5078919;28;20439;-53
2022/08/13 12:23:34;;;;;;;7.90;6.97;;;27.30;98.20;;;;;;5078311;28;20494;-54
2022/08/13 12:26:01;;;;;;;7.00;6.30;;;27.30;99.50;;;;;;5078630;28;20454;-54
2022/08/13 12:28:29;;;;;;;7.50;6.30;;;27.40;99.10;;;;;;5079419;28;20470;-52
2022/08/13 12:30:58;;;;;;;6.37;5.80;;;27.50;98.80;;;;;;5078318;28;20442;-50
2022/08/13 12:33:25;;;;;;;6.40;5.77;;;27.50;98.60;;;;;;5077810;28;20497;-53
2022/08/13 12:35:52;;;;;;;8.87;8.07;;;27.50;97.70;;;;;;5077854;28;20445;-51
2022/08/13 12:38:20;;;;;;;8.93;8.03;;;27.60;97.70;;;;;;5078072;28;20458;-51
2022/08/13 12:40:48;;;;;;;16.47;12.47;;;27.60;98.00;;;;;;5078606;28;20477;-49
2022/08/13 12:43:15;;;;;;;10.20;7.77;;;27.60;97.70;;;;;;5078354;28;20478;-48
2022/08/13 12:45:43;;;;;;;10.43;8.80;;;27.60;97.80;;;;;;5078583;28;20439;-50
2022/08/13 12:48:12;;;;;;;6.97;5.87;;;27.70;97.20;;;;;;5077927;28;20477;-49
2022/08/13 12:50:41;;;;;;;7.47;6.50;;;27.80;96.70;;;;;;5078480;28;20484;-52
2022/08/13 12:53:08;;;;;;;7.23;5.47;;;27.80;97.00;;;;;;5078014;28;20736;-55
2022/08/13 12:55:36;;;;;;;8.10;7.40;;;27.90;97.30;;;;;;5078657;28;20442;-55
2022/08/13 12:58:14;;;;;;;19.70;9.43;;;28.10;96.70;;;;;;5079442;28;20469;-50
2022/08/13 13:00:41;;;;;;;7.23;6.53;;;28.20;96.20;;;;;;5078825;28;20427;-53
2022/08/13 13:03:08;;;;;;;9.87;7.67;;;28.30;96.30;;;;;;5078048;28;20485;-55
2022/08/13 13:05:35;;;;;;;12.90;10.60;;;28.30;95.70;;;;;;5077752;28;20454;-51
2022/08/13 13:08:13;;;;;;;21.70;15.57;;;28.40;95.60;;;;;;5079250;28;20533;-55
2022/08/13 13:10:41;;;;;;;9.43;6.77;;;28.50;95.10;;;;;;5082711;28;20430;-53
2022/08/13 13:13:07;;;;;;;19.60;11.57;;;28.60;94.60;;;;;;5081949;28;20466;-52
2022/08/13 13:15:36;;;;;;;7.70;6.53;;;28.60;94.70;;;;;;5080960;28;20529;-55
2022/08/13 13:18:02;;;;;;;7.00;6.30;;;28.60;94.00;;;;;;5082071;28;20461;-51
2022/08/13 13:20:30;;;;;;;11.57;5.87;;;28.80;93.90;;;;;;5081702;28;20450;-54
2022/08/13 13:22:57;;;;;;;6.43;5.70;;;28.90;93.50;;;;;;5081274;28;20516;-55